Time;durP1;ratioP1;P1;durP2;ratioP2;P2;SDS_P1;SDS_P2;PMS_P1;PMS_P2;Temp;Humidity;BMP_temperature;BMP_pressure;BME280_temperature;BME280_humidity;BME280_pressure;Samples;Min_cycle;Max_cycle;Signal;HPM_P1;HPM_P2
2022/06/26 00:00:08;;;;;;;;;;;;;;;21.89;66.96;100646.66;4973311;28;3889;-95
2022/06/26 00:02:34;;;;;;;;;;;;;;;21.90;67.04;100661.19;4975333;28;1972;-96
2022/06/26 00:05:01;;;;;;;;;;;;;;;21.89;66.89;100652.16;4975803;28;1318;-95
2022/06/26 00:07:27;;;;;;;;;;;;;;;21.89;66.90;100657.63;4975429;28;1715;-96
2022/06/26 00:09:54;;;;;;;;;;;;;;;21.88;66.94;100655.16;4975553;28;2349;-96
2022/06/26 00:12:20;;;;;;;;;;;;;;;21.87;66.84;100653.56;4975123;28;1308;-96
2022/06/26 00:14:47;;;;;;;;;;;;;;;21.87;66.89;100659.03;4974352;28;2268;-95
2022/06/26 00:17:13;;;;;;;;;;;;;;;21.85;66.72;100667.53;4974419;28;2118;-96
2022/06/26 00:19:40;;;;;;;;;;;;;;;21.85;66.74;100669.47;4968662;28;2248;-95
2022/06/26 00:22:08;;;;;;;;;;;;;;;21.84;66.96;100665.09;4961519;28;1980;-96
2022/06/26 00:24:34;;;;;;;;;;;;;;;21.83;66.77;100675.25;4974107;28;2348;-96
2022/06/26 00:27:02;;;;;;;;;;;;;;;21.84;66.76;100676.88;4975805;28;1320;-96
2022/06/26 00:29:29;;;;;;;;;;;;;;;21.82;66.83;100681.03;4967762;28;3415;-95
2022/06/26 00:31:55;;;;;;;;;;;;;;;21.82;66.82;100687.31;4971768;28;1154;-96
2022/06/26 00:34:22;;;;;;;;;;;;;;;21.82;66.77;100670.06;4961386;28;1229;-96
2022/06/26 00:36:48;;;;;;;;;;;;;;;21.81;66.58;100673.91;4972157;28;1447;-96
2022/06/26 00:39:15;;;;;;;;;;;;;;;21.80;66.79;100669.56;4966972;28;2213;-96
2022/06/26 00:41:41;;;;;;;;;;;;;;;21.80;66.59;100686.81;4973091;28;3583;-96
2022/06/26 00:44:08;;;;;;;;;;;;;;;21.78;66.65;100695.31;4970167;28;3973;-96
2022/06/26 00:46:34;;;;;;;;;;;;;;;21.78;66.62;100697.25;4971261;28;2335;-96
2022/06/26 00:49:00;;;;;;;;;;;;;;;21.77;66.53;100701.09;4969029;28;2311;-96
2022/06/26 00:51:27;;;;;;;;;;;;;;;21.76;66.53;100696.69;4958575;28;1188;-95
2022/06/26 00:53:53;;;;;;;;;;;;;;;21.74;66.65;100705.22;4965003;28;1316;-95
2022/06/26 00:56:20;;;;;;;;;;;;;;;21.74;66.66;100707.97;4973114;28;2349;-96
2022/06/26 00:58:46;;;;;;;;;;;;;;;21.74;66.66;100696.19;4959042;28;3768;-96
2022/06/26 01:01:13;;;;;;;;;;;;;;;21.73;66.80;100689.06;4988337;28;2872;-96
2022/06/26 01:03:39;;;;;;;;;;;;;;;21.72;66.52;100690.19;4976128;28;2299;-96
2022/06/26 01:06:05;;;;;;;;;;;;;;;21.71;66.56;100678.41;4965638;28;2783;-96
2022/06/26 01:08:32;;;;;;;;;;;;;;;21.71;66.58;100685.81;4978574;28;1304;-96
2022/06/26 01:10:59;;;;;;;;;;;;;;;21.71;66.49;100688.56;4978540;28;1303;-96
2022/06/26 01:13:25;;;;;;;;;;;;;;;21.69;66.44;100685.28;4973737;28;2165;-95
2022/06/26 01:15:52;;;;;;;;;;;;;;;21.69;66.54;100683.34;4977119;28;2461;-96
2022/06/26 01:18:19;;;;;;;;;;;;;;;21.68;66.52;100683.66;4989416;28;2201;-95
2022/06/26 01:20:54;;;;;;;;;;;;;;;21.66;66.53;100670.22;4978577;28;1985;-96
2022/06/26 01:23:20;;;;;;;;;;;;;;;21.66;66.40;100670.22;4963624;28;2361;-96
2022/06/26 01:25:46;;;;;;;;;;;;;;;21.65;66.49;100667.78;4975709;28;2272;-96
2022/06/26 01:28:13;;;;;;;;;;;;;;;21.64;66.56;100661.47;4979340;28;3768;-96
2022/06/26 01:30:39;;;;;;;;;;;;;;;21.63;66.43;100668.06;4977322;28;5333;-95
2022/06/26 01:33:06;;;;;;;;;;;;;;;21.63;66.58;100676.28;4981638;28;1374;-96
2022/06/26 01:35:32;;;;;;;;;;;;;;;21.62;66.47;100688.38;4973768;28;2315;-96
2022/06/26 01:37:59;;;;;;;;;;;;;;;21.62;66.38;100693.84;4980451;28;2064;-96
2022/06/26 01:40:25;;;;;;;;;;;;;;;21.62;66.29;100690.28;4981105;28;2310;-96
2022/06/26 01:42:51;;;;;;;;;;;;;;;21.60;66.32;100682.34;4979602;28;2358;-96
2022/06/26 01:45:18;;;;;;;;;;;;;;;21.60;66.41;100679.63;4981205;28;2347;-96
2022/06/26 01:47:44;;;;;;;;;;;;;;;21.59;66.41;100683.47;4980395;28;2423;-96
2022/06/26 01:50:11;;;;;;;;;;;;;;;21.58;66.22;100681.00;4978288;28;2367;-96
2022/06/26 01:52:37;;;;;;;;;;;;;;;21.58;66.27;100687.31;4980427;28;1263;-96
2022/06/26 01:55:03;;;;;;;;;;;;;;;21.58;66.34;100689.22;4981216;28;1155;-95
2022/06/26 01:57:30;;;;;;;;;;;;;;;21.57;66.43;100680.19;4980891;28;1184;-96
2022/06/26 01:59:56;;;;;;;;;;;;;;;21.57;66.17;100676.66;4971929;28;2327;-96
2022/06/26 02:02:23;;;;;;;;;;;;;;;21.55;66.13;100680.47;4969487;28;1898;-96
2022/06/26 02:04:49;;;;;;;;;;;;;;;21.54;66.16;100670.63;4980967;28;1362;-95
2022/06/26 02:07:16;;;;;;;;;;;;;;;21.53;66.30;100679.97;4981149;28;1212;-96
2022/06/26 02:15:10;;;;;;;;;;;;;;;21.52;66.28;100669.28;4979025;28;2202;-96
2022/06/26 02:17:37;;;;;;;;;;;;;;;21.50;66.10;100669.59;4981097;28;1169;-96
2022/06/26 02:20:03;;;;;;;;;;;;;;;21.50;66.05;100677.81;4979037;28;2296;-96
2022/06/26 02:22:30;;;;;;;;;;;;;;;21.51;66.31;100675.88;4980711;28;1910;-96
2022/06/26 02:24:56;;;;;;;;;;;;;;;21.49;66.11;100667.94;4980866;28;1358;-96
2022/06/26 02:27:22;;;;;;;;;;;;;;;21.49;66.11;100670.69;4979650;28;1436;-95
2022/06/26 02:29:49;;;;;;;;;;;;;;;21.49;66.02;100667.13;4976338;28;3677;-96
2022/06/26 02:32:15;;;;;;;;;;;;;;;21.47;66.14;100663.84;4979055;28;5500;-95
2022/06/26 02:34:41;;;;;;;;;;;;;;;21.47;66.18;100672.06;4980625;28;1194;-96
2022/06/26 02:37:08;;;;;;;;;;;;;;;21.46;66.08;100676.75;4980007;28;2169;-96
2022/06/26 02:39:34;;;;;;;;;;;;;;;21.46;65.91;100682.22;4978344;28;2391;-95
2022/06/26 02:42:01;;;;;;;;;;;;;;;21.45;66.02;100683.34;4980360;28;1988;-96
2022/06/26 02:44:27;;;;;;;;;;;;;;;21.44;65.97;100676.22;4979110;28;2323;-96
2022/06/26 02:46:53;;;;;;;;;;;;;;;21.44;66.14;100683.59;4980482;28;1271;-96
2022/06/26 02:49:20;;;;;;;;;;;;;;;21.43;65.98;100688.28;4978083;28;2465;-96
2022/06/26 02:51:47;;;;;;;;;;;;;;;21.42;66.09;100694.88;4979256;28;1447;-96
2022/06/26 02:54:13;;;;;;;;;;;;;;;21.42;66.12;100688.59;4979994;28;1167;-96
2022/06/26 02:56:39;;;;;;;;;;;;;;;21.41;65.89;100686.94;4980077;28;2274;-96
2022/06/26 02:59:06;;;;;;;;;;;;;;;21.39;65.93;100692.72;4978478;28;2347;-96
2022/06/26 03:01:32;;;;;;;;;;;;;;;21.41;66.01;100703.38;4995800;28;1907;-95
2022/06/26 03:03:59;;;;;;;;;;;;;;;21.39;66.00;100700.94;4979675;28;1319;-96
2022/06/26 03:06:25;;;;;;;;;;;;;;;21.38;65.91;100698.47;4979383;28;2394;-96
2022/06/26 03:08:51;;;;;;;;;;;;;;;21.37;65.82;100696.84;4974529;28;2156;-95
2022/06/26 03:11:18;;;;;;;;;;;;;;;21.37;65.84;100699.59;4969660;28;4542;-96
2022/06/26 03:13:44;;;;;;;;;;;;;;;21.36;65.78;100706.16;4979685;28;1197;-96
2022/06/26 03:16:11;;;;;;;;;;;;;;;21.35;65.90;100694.34;4971579;28;3815;-96
2022/06/26 03:18:37;;;;;;;;;;;;;;;21.35;65.70;100702.56;4979562;28;2043;-96
2022/06/26 03:21:03;;;;;;;;;;;;;;;21.36;65.65;100697.94;4974367;28;2252;-95
2022/06/26 03:26:10;;;;;;;;;;;;;;;21.33;65.59;100708.34;4977660;28;2132;-96
2022/06/26 03:28:36;;;;;;;;;;;;;;;21.31;65.71;100707.00;4979841;28;1139;-96
2022/06/26 03:31:03;;;;;;;;;;;;;;;21.31;65.65;100704.25;4975549;28;3596;-96
2022/06/26 03:33:29;;;;;;;;;;;;;;;21.29;65.85;100704.53;4973370;28;5671;-96
2022/06/26 03:35:56;;;;;;;;;;;;;;;21.29;65.69;100698.25;4979478;28;2515;-96
2022/06/26 03:38:22;;;;;;;;;;;;;;;21.29;65.83;100703.72;4974216;28;1949;-96
2022/06/26 03:40:49;;;;;;;;;;;;;;;21.28;65.73;100696.63;4972079;28;2211;-95
2022/06/26 03:43:15;;;;;;;;;;;;;;;21.26;65.63;100702.38;4969875;28;2222;-95
2022/06/26 03:45:41;;;;;;;;;;;;;;;21.27;65.81;100704.03;4978684;28;2246;-96
2022/06/26 03:48:08;;;;;;;;;;;;;;;21.26;65.92;100705.09;4968411;28;2320;-96
2022/06/26 03:50:34;;;;;;;;;;;;;;;21.27;65.82;100711.44;4964348;28;3727;-96
2022/06/26 03:53:00;;;;;;;;;;;;;;;21.25;65.69;100700.75;4971168;28;1662;-96
2022/06/26 03:55:27;;;;;;;;;;;;;;;21.25;65.71;100702.66;4978988;28;1163;-95
2022/06/26 03:57:53;;;;;;;;;;;;;;;21.24;65.76;100709.25;4972589;28;2418;-95
2022/06/26 04:00:20;;;;;;;;;;;;;;;21.24;65.64;100706.53;4964882;28;2396;-95
2022/06/26 04:02:46;;;;;;;;;;;;;;;21.22;65.65;100706.78;4988774;28;2368;-95
2022/06/26 04:05:13;;;;;;;;;;;;;;;21.21;65.67;100710.66;4978897;28;1276;-96
2022/06/26 04:07:39;;;;;;;;;;;;;;;21.20;65.71;100705.44;4976697;28;2346;-95
2022/06/26 04:10:05;;;;;;;;;;;;;;;21.20;65.65;100709.00;4973397;28;2395;-96
2022/06/26 04:12:32;;;;;;;;;;;;;;;21.19;65.55;100707.38;4989772;28;2452;-95
2022/06/26 04:14:58;;;;;;;;;;;;;;;21.20;65.38;100710.91;4978097;28;2186;-96
2022/06/26 04:17:25;;;;;;;;;;;;;;;21.17;65.55;100704.09;4978408;28;2367;-95
2022/06/26 04:19:51;;;;;;;;;;;;;;;21.18;65.37;100708.47;4978377;28;1420;-96
2022/06/26 04:22:18;;;;;;;;;;;;;;;21.17;65.61;100712.31;4978841;28;1890;-96
2022/06/26 04:24:44;;;;;;;;;;;;;;;21.17;65.69;100714.22;4978788;28;1150;-96
2022/06/26 04:27:10;;;;;;;;;;;;;;;21.16;65.45;100707.94;4966923;28;3778;-95
2022/06/26 04:29:37;;;;;;;;;;;;;;;21.16;65.33;100709.88;4969489;28;1409;-96
2022/06/26 04:32:03;;;;;;;;;;;;;;;21.15;65.45;100709.06;4972286;28;4063;-95
2022/06/26 04:34:30;;;;;;;;;;;;;;;21.15;65.42;100713.69;4977850;28;5487;-95
2022/06/26 04:36:56;;;;;;;;;;;;;;;21.14;65.72;100712.06;4977164;28;2311;-95
2022/06/26 04:39:23;;;;;;;;;;;;;;;21.14;65.42;100712.88;4974444;28;2136;-96
2022/06/26 04:41:49;;;;;;;;;;;;;;;21.13;65.38;100711.25;4970922;28;2412;-96
2022/06/26 04:44:17;;;;;;;;;;;;;;;21.14;65.37;100710.16;4972436;28;2358;-95
2022/06/26 04:46:46;;;;;;;;;;;;;;;21.13;65.40;100710.44;4969740;28;2642;-96
2022/06/26 04:49:13;;;;;;;;;;;;;;;21.12;65.51;100715.09;4977752;28;2221;-95
2022/06/26 04:51:39;;;;;;;;;;;;;;;21.12;65.41;100715.09;4978466;28;1189;-96
2022/06/26 04:54:05;;;;;;;;;;;;;;;21.11;65.16;100705.25;4978127;28;1352;-96
2022/06/26 04:56:32;;;;;;;;;;;;;;;21.11;65.38;100710.72;4977992;28;2577;-96
2022/06/26 04:58:58;;;;;;;;;;;;;;;21.10;65.28;100707.16;4974803;28;2220;-95
2022/06/26 05:01:25;;;;;;;;;;;;;;;21.10;65.27;100709.09;4983765;28;2546;-96
2022/06/26 05:03:51;;;;;;;;;;;;;;;21.08;65.44;100708.56;4972163;28;2413;-95
2022/06/26 05:06:18;;;;;;;;;;;;;;;21.08;65.37;100709.38;4989694;28;2713;-96
2022/06/26 05:08:44;;;;;;;;;;;;;;;21.09;65.22;100707.47;4992995;28;2351;-96
2022/06/26 05:11:10;;;;;;;;;;;;;;;21.07;65.25;100705.00;4973905;28;1273;-96
2022/06/26 05:13:37;;;;;;;;;;;;;;;21.07;65.11;100709.66;4978502;28;1219;-96
2022/06/26 05:16:03;;;;;;;;;;;;;;;21.07;65.10;100715.94;4972334;28;3711;-96
2022/06/26 05:18:30;;;;;;;;;;;;;;;21.07;65.17;100706.94;4971945;28;1384;-96
2022/06/26 05:20:56;;;;;;;;;;;;;;;21.07;65.21;100710.47;4977440;28;2157;-96
2022/06/26 05:23:24;;;;;;;;;;;;;;;21.06;65.30;100711.59;4975905;28;2403;-95
2022/06/26 05:25:51;;;;;;;;;;;;;;;21.06;65.60;100710.75;4992287;28;2291;-96
2022/06/26 05:28:17;;;;;;;;;;;;;;;21.05;65.20;100709.94;4976401;28;1660;-96
2022/06/26 05:30:43;;;;;;;;;;;;;;;21.05;65.33;100712.69;4977143;28;2340;-95
2022/06/26 05:33:10;;;;;;;;;;;;;;;21.04;65.09;100708.31;4968834;28;3407;-96
2022/06/26 05:35:36;;;;;;;;;;;;;;;21.04;65.23;100712.97;4977931;28;2473;-96
2022/06/26 05:38:03;;;;;;;;;;;;;;;21.04;65.27;100716.53;4977895;28;1192;-96
2022/06/26 05:40:29;;;;;;;;;;;;;;;21.04;65.30;100716.53;4977284;28;1478;-96
2022/06/26 05:42:56;;;;;;;;;;;;;;;21.03;65.34;100723.13;4974984;28;1910;-96
2022/06/26 05:45:22;;;;;;;;;;;;;;;21.04;65.10;100723.94;4967532;28;2264;-96
2022/06/26 05:47:49;;;;;;;;;;;;;;;21.02;65.00;100721.47;4974818;28;1460;-96
2022/06/26 05:50:15;;;;;;;;;;;;;;;21.03;65.31;100725.00;4972655;28;1140;-96
2022/06/26 05:52:41;;;;;;;;;;;;;;;21.03;65.05;100722.28;4981176;28;1217;-96
2022/06/26 05:55:08;;;;;;;;;;;;;;;21.02;65.02;100721.47;4979349;28;2547;-96
2022/06/26 05:57:34;;;;;;;;;;;;;;;21.01;65.02;100719.84;4984421;28;1366;-96
2022/06/26 06:00:01;;;;;;;;;;;;;;;21.01;65.26;100725.31;4987853;28;1995;-96
2022/06/26 06:02:27;;;;;;;;;;;;;;;21.02;65.33;100723.38;4977657;28;1997;-96
2022/06/26 06:04:54;;;;;;;;;;;;;;;21.02;65.02;100726.13;4971878;28;2155;-96
2022/06/26 06:07:20;;;;;;;;;;;;;;;21.01;65.04;100728.06;4981682;28;1287;-95
2022/06/26 06:09:47;;;;;;;;;;;;;;;21.01;65.18;100725.31;4979215;28;2820;-96
2022/06/26 06:12:13;;;;;;;;;;;;;;;21.00;65.09;100726.44;4981260;28;1217;-96
2022/06/26 06:14:40;;;;;;;;;;;;;;;20.99;64.91;100724.78;4982891;28;2369;-96
2022/06/26 06:19:46;;;;;;;;;;;;;;;21.00;65.20;100726.44;4973731;28;2574;-95
2022/06/26 06:22:13;;;;;;;;;;;;;;;20.99;65.06;100721.22;4980983;28;2367;-96
2022/06/26 06:24:39;;;;;;;;;;;;;;;20.99;65.08;100726.69;4974590;28;2566;-96
2022/06/26 06:27:06;;;;;;;;;;;;;;;20.98;65.02;100727.81;4977464;28;2439;-96
2022/06/26 06:29:32;;;;;;;;;;;;;;;20.99;65.11;100721.22;4972211;28;4844;-94
2022/06/26 06:31:59;;;;;;;;;;;;;;;20.98;65.18;100720.41;4971141;28;3932;-96
2022/06/26 06:34:25;;;;;;;;;;;;;;;20.99;65.02;100726.69;4968694;28;3878;-95
2022/06/26 06:36:51;;;;;;;;;;;;;;;20.98;64.95;100734.09;4971626;28;3428;-96
2022/06/26 06:39:20;;;;;;;;;;;;;;;20.98;65.01;100730.53;4976500;28;1641;-96
2022/06/26 06:41:46;;;;;;;;;;;;;;;20.98;64.76;100730.53;4978309;28;2674;-96
2022/06/26 06:44:12;;;;;;;;;;;;;;;20.98;65.04;100728.63;4975973;28;2580;-96
2022/06/26 06:46:39;;;;;;;;;;;;;;;20.97;64.90;100735.22;4975708;28;4235;-96
2022/06/26 06:49:05;;;;;;;;;;;;;;;20.97;64.95;100729.72;4976489;28;3912;-96
2022/06/26 06:51:32;;;;;;;;;;;;;;;20.98;64.92;100742.31;4970004;28;2559;-96
2022/06/26 06:53:58;;;;;;;;;;;;;;;20.97;64.79;100742.56;4988060;28;4606;-96
2022/06/26 06:56:25;;;;;;;;;;;;;;;20.97;64.79;100743.41;4977468;28;1685;-96
2022/06/26 06:58:52;;;;;;;;;;;;;;;20.98;64.81;100736.03;4973965;28;3908;-95
2022/06/26 07:01:18;;;;;;;;;;;;;;;20.97;64.63;100746.16;4972728;28;2395;-95
2022/06/26 07:03:45;;;;;;;;;;;;;;;20.97;64.84;100746.16;4973761;28;2755;-95
2022/06/26 07:06:11;;;;;;;;;;;;;;;20.97;64.96;100745.31;4975864;28;3907;-95
2022/06/26 07:08:38;;;;;;;;;;;;;;;20.98;64.73;100738.75;4976429;28;1422;-94
2022/06/26 07:11:04;;;;;;;;;;;;;;;20.97;64.70;100739.84;4975590;28;3929;-95
2022/06/26 07:13:30;;;;;;;;;;;;;;;20.97;65.03;100728.88;4975534;28;3521;-95
2022/06/26 07:15:57;;;;;;;;;;;;;;;20.96;64.84;100736.28;4975325;28;2682;-96
2022/06/26 07:18:24;;;;;;;;;;;;;;;20.97;64.90;100732.47;4977107;28;3978;-96
2022/06/26 07:20:50;;;;;;;;;;;;;;;20.97;64.87;100726.16;4979550;28;2399;-95
2022/06/26 07:23:16;;;;;;;;;;;;;;;20.98;65.00;100733.28;4971954;28;3770;-96
2022/06/26 07:25:43;;;;;;;;;;;;;;;20.98;64.71;100730.53;4978571;28;1655;-96
2022/06/26 07:28:09;;;;;;;;;;;;;;;20.97;65.04;100731.63;4970505;28;3869;-96
2022/06/26 07:30:36;;;;;;;;;;;;;;;20.98;65.02;100741.50;4974139;28;2437;-96
2022/06/26 07:33:02;;;;;;;;;;;;;;;20.98;64.87;100733.28;4974736;28;2671;-96
2022/06/26 07:35:30;;;;;;;;;;;;;;;20.98;64.94;100733.28;4977252;28;3880;-95
2022/06/26 07:37:56;;;;;;;;;;;;;;;20.98;64.77;100738.75;4975879;28;2236;-95
2022/06/26 07:40:23;;;;;;;;;;;;;;;20.97;64.88;100731.63;4975755;28;2267;-96
2022/06/26 07:42:49;;;;;;;;;;;;;;;20.98;64.88;100730.53;4973545;28;1975;-96
2022/06/26 07:45:16;;;;;;;;;;;;;;;20.97;64.92;100729.72;4972003;28;3611;-96
2022/06/26 07:47:42;;;;;;;;;;;;;;;20.98;64.73;100738.75;4970486;28;1365;-95
2022/06/26 07:50:08;;;;;;;;;;;;;;;20.98;64.94;100747.78;4988375;28;1186;-95
2022/06/26 07:52:35;;;;;;;;;;;;;;;21.00;64.91;100742.00;4978295;28;2264;-95
2022/06/26 07:55:01;;;;;;;;;;;;;;;20.98;65.11;100739.56;4978475;28;1595;-96
2022/06/26 07:57:28;;;;;;;;;;;;;;;20.98;64.87;100736.84;4975219;28;1808;-96
2022/06/26 07:59:54;;;;;;;;;;;;;;;20.98;64.76;100739.56;4969180;28;3867;-95
2022/06/26 08:02:20;;;;;;;;;;;;;;;20.99;65.06;100740.38;4976683;28;2364;-96
2022/06/26 08:04:47;;;;;;;;;;;;;;;21.00;64.96;100742.00;4974607;28;2260;-96
2022/06/26 08:07:14;;;;;;;;;;;;;;;20.99;64.88;100743.94;4968383;28;3596;-95
2022/06/26 08:09:40;;;;;;;;;;;;;;;21.00;65.02;100733.78;4973116;28;1819;-96
2022/06/26 08:12:07;;;;;;;;;;;;;;;21.00;64.86;100747.47;4969208;28;2415;-96
2022/06/26 08:14:33;;;;;;;;;;;;;;;21.00;64.94;100744.75;4983724;28;2251;-96
2022/06/26 08:16:59;;;;;;;;;;;;;;;21.00;64.72;100740.13;4977980;28;1691;-95
2022/06/26 08:19:26;;;;;;;;;;;;;;;21.01;64.89;100747.22;4975451;28;2359;-95
2022/06/26 08:22:01;;;;;;;;;;;;;;;21.01;64.71;100735.44;4978471;28;1174;-96
2022/06/26 08:24:28;;;;;;;;;;;;;;;21.00;64.73;100728.31;4978436;28;1911;-96
2022/06/26 08:26:54;;;;;;;;;;;;;;;21.01;65.14;100729.97;4978275;28;1267;-96
2022/06/26 08:29:21;;;;;;;;;;;;;;;21.01;65.02;100722.56;4974796;28;2407;-95
2022/06/26 08:31:48;;;;;;;;;;;;;;;21.02;64.93;100735.16;4972987;28;2173;-96
2022/06/26 08:34:14;;;;;;;;;;;;;;;21.01;64.92;100728.06;4959606;28;1332;-95
2022/06/26 08:36:41;;;;;;;;;;;;;;;21.02;64.99;100734.34;4975050;28;5302;-96
2022/06/26 08:39:07;;;;;;;;;;;;;;;21.02;64.92;100729.66;4975599;28;2250;-95
2022/06/26 08:41:34;;;;;;;;;;;;;;;21.02;64.92;100729.66;4971619;28;1206;-95
2022/06/26 08:44:00;;;;;;;;;;;;;;;21.03;64.96;100735.97;4976377;28;2122;-96
2022/06/26 08:46:27;;;;;;;;;;;;;;;21.03;65.10;100730.50;4964586;28;1627;-95
2022/06/26 08:48:53;;;;;;;;;;;;;;;21.04;64.86;100726.66;4975622;28;2361;-96
2022/06/26 08:51:19;;;;;;;;;;;;;;;21.03;64.93;100717.63;4970220;28;3741;-96
2022/06/26 08:53:46;;;;;;;;;;;;;;;21.04;64.85;100729.41;4976312;28;2205;-95
2022/06/26 08:56:13;;;;;;;;;;;;;;;21.04;64.83;100732.94;4992732;28;2310;-96
2022/06/26 08:58:39;;;;;;;;;;;;;;;21.05;64.96;100737.31;4974833;28;1441;-96
2022/06/26 09:01:07;;;;;;;;;;;;;;;21.06;65.07;100735.38;4974020;28;2273;-95
2022/06/26 09:03:34;;;;;;;;;;;;;;;21.06;65.04;100736.22;4978198;28;1914;-95
2022/06/26 09:06:01;;;;;;;;;;;;;;;21.06;64.99;100738.97;4978377;28;1136;-96
2022/06/26 09:08:29;;;;;;;;;;;;;;;21.06;65.00;100729.91;4978225;28;1303;-96
2022/06/26 09:10:55;;;;;;;;;;;;;;;21.06;65.07;100738.97;4975669;28;2328;-95
2022/06/26 09:13:22;;;;;;;;;;;;;;;21.08;65.03;100738.66;4974470;28;2439;-96
2022/06/26 09:15:50;;;;;;;;;;;;;;;21.07;64.99;100726.09;4974155;28;2321;-95
2022/06/26 09:18:16;;;;;;;;;;;;;;;21.08;64.92;100730.47;4977549;28;2244;-95
2022/06/26 09:20:43;;;;;;;;;;;;;;;21.09;64.81;100734.84;4977893;28;1229;-96
2022/06/26 09:23:10;;;;;;;;;;;;;;;21.08;64.87;100725.78;4977896;28;1906;-96
2022/06/26 09:25:36;;;;;;;;;;;;;;;21.09;64.94;100734.84;4977118;28;2331;-96
2022/06/26 09:28:03;;;;;;;;;;;;;;;21.10;64.85;100734.53;4980837;28;2134;-96
2022/06/26 09:30:29;;;;;;;;;;;;;;;21.12;65.14;100736.16;4978515;28;3798;-96
2022/06/26 09:32:56;;;;;;;;;;;;;;;21.12;65.12;100733.44;4980817;28;2189;-95
2022/06/26 09:35:22;;;;;;;;;;;;;;;21.12;64.91;100734.28;4976701;28;4322;-95
2022/06/26 09:37:48;;;;;;;;;;;;;;;21.13;65.05;100740.56;4973009;28;4247;-95
2022/06/26 09:40:15;;;;;;;;;;;;;;;21.13;64.94;100746.84;4988902;28;2679;-96
2022/06/26 09:42:41;;;;;;;;;;;;;;;21.14;65.17;100742.19;4982354;28;1862;-95
2022/06/26 09:45:08;;;;;;;;;;;;;;;21.14;64.89;100739.44;4975457;28;2409;-96
2022/06/26 09:47:35;;;;;;;;;;;;;;;21.15;64.86;100736.44;4975622;28;2231;-95
2022/06/26 09:50:01;;;;;;;;;;;;;;;21.16;65.03;100742.72;4980582;28;1213;-95
2022/06/26 09:52:27;;;;;;;;;;;;;;;21.16;65.29;100745.47;4980267;28;1153;-95
2022/06/26 09:54:54;;;;;;;;;;;;;;;21.18;65.07;100745.97;4974748;28;3852;-94
2022/06/26 09:57:20;;;;;;;;;;;;;;;21.18;65.03;100746.81;4977910;28;2508;-95
2022/06/26 09:59:47;;;;;;;;;;;;;;;21.18;65.06;100746.81;4974591;28;2225;-95
2022/06/26 10:07:41;;;;;;;;;;;;;;;21.20;65.09;100762.94;4976928;28;2399;-96
2022/06/26 10:10:07;;;;;;;;;;;;;;;21.20;65.26;100771.16;4980880;28;2493;-95
2022/06/26 10:12:34;;;;;;;;;;;;;;;21.19;65.15;100764.88;4980354;28;1284;-95
2022/06/26 10:15:00;;;;;;;;;;;;;;;21.21;65.26;100759.13;4972280;28;3813;-94
2022/06/26 10:17:26;;;;;;;;;;;;;;;21.22;65.13;100758.03;4976852;28;2337;-95
2022/06/26 10:19:53;;;;;;;;;;;;;;;21.23;65.06;100767.84;4972340;28;2547;-95
2022/06/26 10:22:19;;;;;;;;;;;;;;;21.23;64.93;100763.19;4973162;28;1275;-95
2022/06/26 10:24:46;;;;;;;;;;;;;;;21.24;65.21;100770.31;4991833;28;4885;-94
2022/06/26 10:27:12;;;;;;;;;;;;;;;21.25;65.25;100762.91;4979289;28;2431;-94
2022/06/26 10:29:38;;;;;;;;;;;;;;;21.26;65.07;100764.53;4976592;28;2323;-96
2022/06/26 10:32:05;;;;;;;;;;;;;;;21.25;64.95;100763.72;4970464;28;3774;-94
2022/06/26 10:34:31;;;;;;;;;;;;;;;21.26;65.16;100764.53;4975939;28;1314;-95
2022/06/26 10:36:58;;;;;;;;;;;;;;;21.27;65.07;100772.50;4975750;28;4431;-95
2022/06/26 10:39:24;;;;;;;;;;;;;;;21.27;65.36;100768.94;4979237;28;1539;-95
2022/06/26 10:44:35;;;;;;;;;;;;;;;21.27;65.31;100775.22;4977674;28;2213;-95
2022/06/26 10:47:01;;;;;;;;;;;;;;;21.28;65.40;100778.78;4979508;28;2312;-95
2022/06/26 10:49:28;;;;;;;;;;;;;;;21.29;65.31;100780.41;4979129;28;1583;-95
2022/06/26 10:51:55;;;;;;;;;;;;;;;21.27;65.28;100780.72;4978552;28;2232;-96
2022/06/26 10:54:21;;;;;;;;;;;;;;;21.29;65.26;100786.69;4979921;28;1176;-94
2022/06/26 10:56:48;;;;;;;;;;;;;;;21.30;65.20;100795.75;4977416;28;2347;-96
2022/06/26 10:59:14;;;;;;;;;;;;;;;21.30;65.08;100802.06;4977772;28;2326;-95
2022/06/26 11:01:40;;;;;;;;;;;;;;;21.30;65.27;100807.53;4977472;28;1583;-96
2022/06/26 11:04:07;;;;;;;;;;;;;;;21.30;65.25;100806.72;4979221;28;2170;-95
2022/06/26 11:06:34;;;;;;;;;;;;;;;21.31;65.28;100811.09;4990243;28;2307;-95
2022/06/26 11:09:00;;;;;;;;;;;;;;;21.31;65.19;100809.16;4969109;28;2035;-95
2022/06/26 11:11:26;;;;;;;;;;;;;;;21.32;65.35;100807.22;4972002;28;1666;-94
2022/06/26 11:13:53;;;;;;;;;;;;;;;21.32;65.32;100801.75;4973686;28;2144;-94
2022/06/26 11:16:19;;;;;;;;;;;;;;;21.32;65.46;100790.78;4978571;28;2341;-95
2022/06/26 11:18:46;;;;;;;;;;;;;;;21.33;65.30;100784.22;4979673;28;1296;-95
2022/06/26 11:21:12;;;;;;;;;;;;;;;21.32;65.42;100788.91;4979228;28;2962;-95
2022/06/26 11:23:40;;;;;;;;;;;;;;;21.33;65.18;100792.44;4977739;28;1923;-95
2022/06/26 11:26:06;;;;;;;;;;;;;;;21.31;65.40;100783.69;4978940;28;2244;-95
2022/06/26 11:28:36;;;;;;;;;;;;;;;21.31;65.54;100789.97;4978516;28;1430;-95
2022/06/26 11:31:02;;;;;;;;;;;;;;;21.33;65.40;100784.22;4977622;28;2288;-95
2022/06/26 11:33:29;;;;;;;;;;;;;;;21.32;65.31;100788.91;4975146;28;2308;-95
2022/06/26 11:35:55;;;;;;;;;;;;;;;21.33;65.44;100784.22;4976213;28;1110;-96
2022/06/26 11:38:22;;;;;;;;;;;;;;;21.33;65.33;100785.03;4976670;28;1626;-95
2022/06/26 11:40:51;;;;;;;;;;;;;;;21.34;65.27;100794.06;4972902;28;3881;-95
2022/06/26 11:43:18;;;;;;;;;;;;;;;21.32;65.35;100780.69;4973319;28;2291;-96
2022/06/26 11:45:46;;;;;;;;;;;;;;;21.34;65.58;100780.38;4970197;28;2593;-95
2022/06/26 11:48:17;;;;;;;;;;;;;;;21.33;65.39;100767.78;4973233;28;2422;-96
2022/06/26 11:50:50;;;;;;;;;;;;;;;21.34;65.36;100777.63;4971282;28;2466;-94
2022/06/26 11:53:16;;;;;;;;;;;;;;;21.34;65.27;100774.91;4970368;28;2570;-95
2022/06/26 11:55:43;;;;;;;;;;;;;;;21.35;65.47;100773.78;4984335;28;2366;-95
2022/06/26 11:58:09;;;;;;;;;;;;;;;21.35;65.43;100773.78;4973582;28;2398;-95
2022/06/26 12:00:37;;;;;;;;;;;;;;;21.35;65.27;100770.22;4964176;28;4684;-95
2022/06/26 12:03:06;;;;;;;;;;;;;;;21.35;65.19;100782.00;4983620;28;4630;-94
2022/06/26 12:05:33;;;;;;;;;;;;;;;21.35;65.45;100782.00;4978710;28;1915;-95
2022/06/26 12:07:59;;;;;;;;;;;;;;;21.35;65.60;100776.53;4990119;28;1300;-94
2022/06/26 12:10:25;;;;;;;;;;;;;;;21.35;65.48;100779.25;4979245;28;1410;-96
2022/06/26 12:12:52;;;;;;;;;;;;;;;21.35;65.59;100779.25;4967706;28;2363;-94
2022/06/26 12:15:18;;;;;;;;;;;;;;;21.36;65.39;100769.16;4966797;28;2419;-94
2022/06/26 12:17:45;;;;;;;;;;;;;;;21.35;65.51;100783.94;4974925;28;2392;-94
2022/06/26 12:20:13;;;;;;;;;;;;;;;21.36;65.67;100777.38;4978848;28;1324;-94
2022/06/26 12:22:39;;;;;;;;;;;;;;;21.36;65.38;100789.16;4968520;28;2466;-94
2022/06/26 12:25:06;;;;;;;;;;;;;;;21.36;65.38;100797.38;4974486;28;2431;-94
2022/06/26 12:27:32;;;;;;;;;;;;;;;21.36;65.38;100788.31;4986497;28;3631;-95
2022/06/26 12:29:58;;;;;;;;;;;;;;;21.36;65.32;100780.09;4976602;28;2234;-94
2022/06/26 12:32:25;;;;;;;;;;;;;;;21.37;65.46;100779.03;4972930;28;2216;-94
2022/06/26 12:34:51;;;;;;;;;;;;;;;21.36;65.50;100774.63;4977325;28;2464;-94
2022/06/26 12:37:18;;;;;;;;;;;;;;;21.37;65.30;100762.59;4964338;28;1739;-94
2022/06/26 12:39:46;;;;;;;;;;;;;;;21.36;65.64;100759.03;4978725;28;1301;-94
2022/06/26 12:42:13;;;;;;;;;;;;;;;21.36;65.29;100760.94;4966287;28;1312;-93
2022/06/26 12:44:39;;;;;;;;;;;;;;;21.37;65.32;100770.81;4977333;28;3756;-93
2022/06/26 12:47:06;;;;;;;;;;;;;;;21.36;65.48;100770.00;4974055;28;2015;-93
2022/06/26 12:49:32;;;;;;;;;;;;;;;21.36;65.54;100761.78;4976190;28;2174;-94
2022/06/26 12:51:59;;;;;;;;;;;;;;;21.37;65.29;100768.06;4978122;28;1195;-94
2022/06/26 12:54:25;;;;;;;;;;;;;;;21.36;65.54;100767.25;4975246;28;2406;-94
2022/06/26 12:56:51;;;;;;;;;;;;;;;21.36;65.44;100764.50;4977064;28;2031;-93
2022/06/26 12:59:18;;;;;;;;;;;;;;;21.36;65.34;100764.50;4986090;28;2255;-93
2022/06/26 13:01:44;;;;;;;;;;;;;;;21.36;65.37;100764.50;4981731;28;1583;-93